KMEV/MEV METAR and TAF weather

Enter ICAO airport designator
Station Type Date Time Source
KMEV METAR 2019/08/24 18:35 UTC NOAA

KMEV 241835Z AUTO 29006KT 10SM CLR 30/08 A3012 RMK AO2


Station Type Date Time Source
KMEV Decoded METAR 2019/08/24 18:35 UTC NOAA

Station name not available
Aug 24, 2019 - 02:35 PM EDT / 2019.08.24 1835 UTC
Wind: from the WNW (290 degrees) at 7 MPH (6 KT):0
Visibility: 10 mile(s):0
Sky conditions: clear
Temperature: 86 F (30 C)
Dew Point: 46 F (8 C)
Relative Humidity: 25%
Pressure (altimeter): 30.12 in. Hg (1019 hPa)
ob: KMEV 241835Z AUTO 29006KT 10SM CLR 30/08 A3012 RMK AO2
cycle: 18

Station Type Date Time Source
KMEV TAF 2019/08/24 18:26 UTC NOAA

TAF KMEV 241726Z 2418/2518 12005KT P6SM SKC
FM242000 27015G25KT P6SM SKC
FM250400 12005KT P6SM SKC

Example: see airport list